Terminal Aerodrome Forecast
Issued by NWS

Home | Current Version | Previous Version | Text Only | Print | Product List | Glossary On
Versions: 1 2 3 4 5 6 7 8 9 10 11 12 13 14
000
FTAK31 PAJN 230500
TAFAWG
TAF
PAWG 230525Z 2306/2406 VRB03KT P6SM BKN080 OVC150
     FM231000 VRB03KT P6SM -SHRA SCT025 OVC050
     FM231800 31005KT P6SM VCSH BKN050 BKN100
     FM232100 VRB04KT P6SM BKN150
     FM240300 VRB03KT P6SM SCT050 BKN100
      AMD LTD TO CLD VIS AND WIND 2306/2315=

USA.gov is the U.S. government's official web portal to all federal, state and local government web resources and services.